createdAt,value
2017-12-19T00:02:25.281Z,1.00
2017-12-19T00:04:53.484Z,1.00
2017-12-19T00:07:20.908Z,1.00
2017-12-19T00:09:48.356Z,1.10
2017-12-19T00:12:15.768Z,1.10
2017-12-19T00:14:43.196Z,1.10
2017-12-19T00:17:11.416Z,0.90
2017-12-19T00:19:38.852Z,0.90
2017-12-19T00:22:06.284Z,0.90
2017-12-19T00:24:33.839Z,0.90
2017-12-19T00:27:01.259Z,0.90
2017-12-19T00:29:28.719Z,0.90
2017-12-19T00:31:56.151Z,0.90
2017-12-19T00:34:23.588Z,0.90
2017-12-19T00:36:50.992Z,0.90
2017-12-19T00:39:19.180Z,1.10
2017-12-19T00:41:46.600Z,1.00
2017-12-19T00:44:14.788Z,1.20
2017-12-19T00:46:42.208Z,1.10
2017-12-19T00:49:09.683Z,1.20
2017-12-19T00:51:37.116Z,1.20
2017-12-19T00:54:04.543Z,1.20
2017-12-19T00:56:31.963Z,1.10
2017-12-19T00:59:00.159Z,1.30
2017-12-19T01:01:27.585Z,1.30
2017-12-19T01:03:55.053Z,1.20
2017-12-19T01:06:22.486Z,1.20
2017-12-19T01:08:49.903Z,1.20
2017-12-19T01:11:17.327Z,1.10
2017-12-19T01:13:45.524Z,1.00
2017-12-19T01:16:12.980Z,1.00
2017-12-19T01:18:40.399Z,1.20
2017-12-19T01:21:07.828Z,1.30
2017-12-19T01:23:35.248Z,1.30
2017-12-19T01:26:03.765Z,1.30
2017-12-19T01:28:31.192Z,1.30
2017-12-19T01:30:58.619Z,1.40
2017-12-19T01:33:26.040Z,1.30
2017-12-19T01:35:54.228Z,1.20
2017-12-19T01:38:21.659Z,1.20
2017-12-19T01:40:49.080Z,1.30
2017-12-19T01:43:17.269Z,1.20
2017-12-19T01:45:44.700Z,1.20
2017-12-19T01:48:12.123Z,1.20
2017-12-19T01:50:40.321Z,1.10
2017-12-19T01:53:07.747Z,1.10
2017-12-19T01:55:35.204Z,1.10
2017-12-19T01:58:02.649Z,1.20
2017-12-19T02:00:30.072Z,1.30
2017-12-19T02:02:57.512Z,1.20
2017-12-19T02:05:24.940Z,1.30
2017-12-19T02:07:52.364Z,1.20
2017-12-19T02:10:20.560Z,1.00
2017-12-19T02:12:47.983Z,1.00
2017-12-19T02:15:15.403Z,1.00
2017-12-19T02:17:43.596Z,1.10
2017-12-19T02:20:11.025Z,1.10
2017-12-19T02:22:38.443Z,1.10
2017-12-19T02:25:06.639Z,1.20
2017-12-19T02:27:34.060Z,1.20
2017-12-19T02:30:02.269Z,1.40
2017-12-19T02:32:29.692Z,1.40
2017-12-19T02:34:57.179Z,1.30
2017-12-19T02:37:24.601Z,1.30
2017-12-19T02:39:52.031Z,1.30
2017-12-19T02:42:19.447Z,1.40
2017-12-19T02:44:46.879Z,1.40
2017-12-19T02:47:14.307Z,1.30
2017-12-19T02:49:42.500Z,1.20
2017-12-19T02:52:09.958Z,1.10
2017-12-19T02:54:37.367Z,1.10
2017-12-19T02:57:04.814Z,1.10
2017-12-19T02:59:32.264Z,1.10
2017-12-19T03:01:59.688Z,1.00
2017-12-19T03:04:27.120Z,1.00
2017-12-19T03:06:55.335Z,1.00
2017-12-19T03:09:22.747Z,0.90
2017-12-19T03:11:50.186Z,1.00
2017-12-19T03:14:17.608Z,1.10
2017-12-19T03:16:45.788Z,1.10
2017-12-19T03:19:13.212Z,1.10
2017-12-19T03:21:40.639Z,1.10
2017-12-19T03:24:08.831Z,0.90
2017-12-19T03:26:36.252Z,0.90
2017-12-19T03:29:03.694Z,0.90
2017-12-19T03:31:31.115Z,0.90
2017-12-19T03:33:59.302Z,0.90
2017-12-19T03:36:26.727Z,0.90
2017-12-19T03:38:54.915Z,0.90
2017-12-19T03:41:22.339Z,0.90
2017-12-19T03:43:49.753Z,0.90
2017-12-19T03:46:17.936Z,0.90
2017-12-19T03:48:45.363Z,0.90
2017-12-19T03:51:13.573Z,0.90
2017-12-19T03:53:40.984Z,0.90
2017-12-19T03:56:08.415Z,0.90
2017-12-19T03:58:35.836Z,0.90
2017-12-19T04:01:03.251Z,0.90
2017-12-19T04:03:31.065Z,1.00
2017-12-19T04:05:58.479Z,1.10
2017-12-19T04:08:26.672Z,1.00
2017-12-19T04:10:54.103Z,1.00
2017-12-19T04:13:21.528Z,1.10
2017-12-19T04:15:49.708Z,1.10
2017-12-19T04:18:17.140Z,1.10
2017-12-19T04:20:44.564Z,1.10
2017-12-19T04:23:12.751Z,1.00
2017-12-19T04:25:40.176Z,1.00
2017-12-19T04:28:07.590Z,1.00
2017-12-19T04:30:35.031Z,0.90
2017-12-19T04:33:02.447Z,0.90
2017-12-19T04:35:29.867Z,1.00
2017-12-19T04:37:57.288Z,1.00
2017-12-19T04:40:24.712Z,1.00
2017-12-19T04:42:52.916Z,1.00
2017-12-19T04:45:20.337Z,1.00
2017-12-19T04:47:47.756Z,0.90
2017-12-19T04:50:15.949Z,0.80
2017-12-19T04:52:43.367Z,0.80
2017-12-19T04:55:10.792Z,0.90
2017-12-19T04:57:38.989Z,0.90
2017-12-19T05:00:06.415Z,0.90
2017-12-19T05:02:33.837Z,0.90
2017-12-19T05:05:02.033Z,0.90
2017-12-19T05:07:29.448Z,0.80
2017-12-19T05:09:56.872Z,0.90
2017-12-19T05:12:25.082Z,1.00
2017-12-19T05:14:52.480Z,0.90
2017-12-19T05:17:20.672Z,0.90
2017-12-19T05:19:48.132Z,0.90
2017-12-19T05:22:15.560Z,0.90
2017-12-19T05:24:42.976Z,1.00
2017-12-19T05:27:10.401Z,1.00
2017-12-19T05:29:38.596Z,0.90
2017-12-19T05:32:06.018Z,0.90
2017-12-19T05:34:33.428Z,0.90
2017-12-19T05:37:00.871Z,0.90
2017-12-19T05:39:28.300Z,1.00
2017-12-19T05:41:55.727Z,0.90
2017-12-19T05:44:23.161Z,1.00
2017-12-19T05:46:50.584Z,1.00
2017-12-19T05:49:18.013Z,1.00
2017-12-19T05:51:45.432Z,1.00
2017-12-19T05:54:13.645Z,1.00
2017-12-19T05:56:41.059Z,0.90
2017-12-19T05:59:08.519Z,1.00
2017-12-19T06:01:35.980Z,1.10
2017-12-19T06:04:03.401Z,1.00
2017-12-19T06:06:30.852Z,0.90
2017-12-19T06:08:58.390Z,0.90
2017-12-19T06:11:25.795Z,0.90
2017-12-19T06:13:53.211Z,1.00
2017-12-19T06:16:21.404Z,1.10
2017-12-19T06:18:48.835Z,1.10
2017-12-19T06:21:16.256Z,1.00
2017-12-19T06:23:44.444Z,1.00
2017-12-19T06:26:11.871Z,1.00
2017-12-19T06:28:40.056Z,0.90
2017-12-19T06:31:07.484Z,0.90
2017-12-19T06:33:34.902Z,0.90
2017-12-19T06:36:03.092Z,1.10
2017-12-19T06:38:30.532Z,1.10
2017-12-19T06:40:57.959Z,1.00
2017-12-19T06:43:25.380Z,0.90
2017-12-19T06:45:52.811Z,0.90
2017-12-19T06:48:20.237Z,0.90
2017-12-19T06:50:47.668Z,0.90
2017-12-19T06:53:15.101Z,1.00
2017-12-19T06:55:42.532Z,1.00
2017-12-19T06:58:09.957Z,1.10
2017-12-19T07:00:37.372Z,1.10
2017-12-19T07:03:05.560Z,1.20
2017-12-19T07:05:32.988Z,1.10
2017-12-19T07:08:00.411Z,1.20
2017-12-19T07:10:28.604Z,1.10
2017-12-19T07:12:56.024Z,1.00
2017-12-19T07:15:24.216Z,1.10
2017-12-19T07:17:51.631Z,1.10
2017-12-19T07:20:19.054Z,1.10
2017-12-19T07:22:47.245Z,1.20
2017-12-19T07:25:14.663Z,1.20
2017-12-19T07:27:42.856Z,1.20
2017-12-19T07:30:10.271Z,1.20
2017-12-19T07:32:37.708Z,1.30
2017-12-19T07:35:05.136Z,1.30
2017-12-19T07:37:32.576Z,1.30
2017-12-19T07:39:59.988Z,1.30
2017-12-19T07:42:27.412Z,1.20
2017-12-19T07:44:54.829Z,1.20
2017-12-19T07:47:22.255Z,1.20
2017-12-19T07:49:50.465Z,1.20
2017-12-19T07:52:17.898Z,1.20
2017-12-19T07:54:45.324Z,1.20
2017-12-19T07:57:12.763Z,1.20
2017-12-19T07:59:40.188Z,1.10
2017-12-19T08:02:07.613Z,1.10
2017-12-19T08:04:35.808Z,1.30
2017-12-19T08:07:03.223Z,1.30
2017-12-19T08:09:31.407Z,1.60
2017-12-19T08:11:58.832Z,1.60
2017-12-19T08:14:26.252Z,1.60
2017-12-19T08:16:54.444Z,1.70
2017-12-19T08:19:21.872Z,1.70
2017-12-19T08:21:50.067Z,1.70
2017-12-19T08:24:17.500Z,1.60
2017-12-19T08:26:44.912Z,1.60
2017-12-19T08:29:12.335Z,1.50
2017-12-19T08:31:40.532Z,1.50
2017-12-19T08:34:08.046Z,1.40
2017-12-19T08:36:36.231Z,1.50
2017-12-19T08:39:03.655Z,1.40
2017-12-19T08:41:31.076Z,1.50
2017-12-19T08:43:58.495Z,1.40
2017-12-19T08:46:26.020Z,1.40
2017-12-19T08:48:53.447Z,1.40
2017-12-19T08:51:20.863Z,1.50
2017-12-19T08:53:48.300Z,1.50
2017-12-19T08:56:16.493Z,1.50
2017-12-19T08:58:43.916Z,1.40
2017-12-19T09:01:11.343Z,1.40
2017-12-19T09:03:38.778Z,1.40
2017-12-19T09:06:06.964Z,1.50
2017-12-19T09:08:34.415Z,1.40
2017-12-19T09:11:01.852Z,1.40
2017-12-19T09:13:29.272Z,1.40
2017-12-19T09:15:56.699Z,1.50
2017-12-19T09:18:24.884Z,1.50
2017-12-19T09:20:52.308Z,1.50
2017-12-19T09:23:20.492Z,1.50
2017-12-19T09:25:47.916Z,1.60
2017-12-19T09:28:15.491Z,1.60
2017-12-19T09:30:42.932Z,1.70
2017-12-19T09:33:10.354Z,1.80
2017-12-19T09:35:37.776Z,1.80
2017-12-19T09:38:05.200Z,1.70
2017-12-19T09:40:32.630Z,1.70
2017-12-19T09:43:00.056Z,1.60
2017-12-19T09:45:27.596Z,1.70
2017-12-19T09:47:54.987Z,1.80
2017-12-19T09:50:22.407Z,1.80
2017-12-19T09:52:49.844Z,1.70
2017-12-19T09:55:17.247Z,1.70
2017-12-19T09:57:44.672Z,1.70
2017-12-19T10:00:12.095Z,1.70
2017-12-19T10:02:39.517Z,1.80
2017-12-19T10:05:06.931Z,1.90
2017-12-19T10:07:34.363Z,1.90
2017-12-19T10:10:01.790Z,1.90
2017-12-19T10:12:29.203Z,2.00
2017-12-19T10:14:56.636Z,2.00
2017-12-19T10:17:24.819Z,2.10
2017-12-19T10:19:52.244Z,2.10
2017-12-19T10:22:19.660Z,2.00
2017-12-19T10:24:47.855Z,2.00
2017-12-19T10:27:15.280Z,2.00
2017-12-19T10:29:42.703Z,2.10
2017-12-19T10:32:10.939Z,2.00
2017-12-19T10:34:38.380Z,2.00
2017-12-19T10:37:05.800Z,2.00
2017-12-19T10:39:33.228Z,2.00
2017-12-19T10:42:00.649Z,2.00
2017-12-19T10:44:28.075Z,2.00
2017-12-19T10:46:56.540Z,2.10
2017-12-19T10:49:24.728Z,2.10
2017-12-19T10:51:52.152Z,2.10
2017-12-19T10:54:20.356Z,2.10
2017-12-19T10:56:47.768Z,2.10
2017-12-19T10:59:15.191Z,2.10
2017-12-19T11:01:43.380Z,2.00
2017-12-19T11:04:10.812Z,2.00
2017-12-19T11:06:38.285Z,2.10
2017-12-19T11:09:05.699Z,2.20
2017-12-19T11:11:33.166Z,2.20
2017-12-19T11:14:00.579Z,2.20
2017-12-19T11:16:28.018Z,2.10
2017-12-19T11:18:55.435Z,2.10
2017-12-19T11:21:23.635Z,2.20
2017-12-19T11:23:51.058Z,2.20
2017-12-19T11:26:18.500Z,2.20
2017-12-19T11:28:45.924Z,2.30
2017-12-19T11:31:14.116Z,2.30
2017-12-19T11:33:41.540Z,2.30
2017-12-19T11:36:08.961Z,2.30
2017-12-19T11:38:37.184Z,2.40
2017-12-19T11:41:04.612Z,2.40
2017-12-19T11:43:32.027Z,2.50
2017-12-19T11:45:59.448Z,2.60
2017-12-19T11:48:27.645Z,2.70
2017-12-19T11:50:55.104Z,2.70
2017-12-19T11:53:22.528Z,2.50
2017-12-19T11:55:49.952Z,2.60
2017-12-19T11:58:17.396Z,2.60
2017-12-19T12:00:44.816Z,2.60
2017-12-19T12:03:13.000Z,2.50
2017-12-19T12:05:40.428Z,2.50
2017-12-19T12:08:07.847Z,2.60
2017-12-19T12:10:35.288Z,2.40
2017-12-19T12:13:03.480Z,2.40
2017-12-19T12:15:30.912Z,2.40
2017-12-19T12:17:59.091Z,2.50
2017-12-19T12:20:26.508Z,2.50
2017-12-19T12:22:53.937Z,2.40
2017-12-19T12:25:22.155Z,2.50
2017-12-19T12:27:49.573Z,2.40
2017-12-19T12:30:16.991Z,2.40
2017-12-19T12:32:44.419Z,2.40
2017-12-19T12:35:12.608Z,2.50
2017-12-19T12:37:40.036Z,2.50
2017-12-19T12:40:07.449Z,2.40
2017-12-19T12:42:34.875Z,2.40
2017-12-19T12:45:02.292Z,2.40
2017-12-19T12:47:29.711Z,2.30
2017-12-19T12:49:57.128Z,2.30
2017-12-19T12:52:24.556Z,2.40
2017-12-19T12:54:52.744Z,2.50
2017-12-19T12:57:20.183Z,2.50
2017-12-19T12:59:47.608Z,2.40
2017-12-19T13:02:15.800Z,2.30
2017-12-19T13:04:43.301Z,2.30
2017-12-19T13:07:10.674Z,2.30
2017-12-19T13:09:38.104Z,2.30
2017-12-19T13:12:05.528Z,2.30
2017-12-19T13:14:33.715Z,2.30
2017-12-19T13:17:01.141Z,2.30
2017-12-19T13:19:28.555Z,2.30
2017-12-19T13:21:56.740Z,2.10
2017-12-19T13:24:24.172Z,2.10
2017-12-19T13:26:52.361Z,2.20
2017-12-19T13:29:19.779Z,2.20
2017-12-19T13:31:47.984Z,2.10
2017-12-19T13:34:15.396Z,2.10
2017-12-19T13:36:42.816Z,2.10
2017-12-19T13:39:11.004Z,2.00
2017-12-19T13:41:38.424Z,2.00
2017-12-19T13:44:05.839Z,2.00
2017-12-19T13:46:34.064Z,2.20
2017-12-19T13:49:01.468Z,2.20
2017-12-19T13:51:28.884Z,2.10
2017-12-19T13:53:56.308Z,2.20
2017-12-19T13:56:23.732Z,2.20
2017-12-19T13:58:51.177Z,2.10
2017-12-19T14:01:18.607Z,2.10
2017-12-19T14:03:46.029Z,2.20
2017-12-19T14:06:13.455Z,2.20
2017-12-19T14:08:41.640Z,2.00
2017-12-19T14:11:09.056Z,2.00
2017-12-19T14:13:36.495Z,2.00
2017-12-19T14:16:04.680Z,2.00
2017-12-19T14:18:32.100Z,2.00
2017-12-19T14:20:59.529Z,2.00
2017-12-19T14:23:27.703Z,2.00
2017-12-19T14:25:55.127Z,2.00
2017-12-19T14:28:23.323Z,2.00
2017-12-19T14:30:50.739Z,2.00
2017-12-19T14:33:18.152Z,2.10
2017-12-19T14:35:46.361Z,2.00
2017-12-19T14:38:13.780Z,2.00
2017-12-19T14:40:41.216Z,2.00
2017-12-19T14:43:08.648Z,2.00
2017-12-19T14:45:36.842Z,2.10
2017-12-19T14:48:04.295Z,2.10
2017-12-19T14:50:31.703Z,2.00
2017-12-19T14:52:59.128Z,2.00
2017-12-19T14:55:27.323Z,1.90
2017-12-19T14:57:54.749Z,1.90
2017-12-19T15:00:22.175Z,2.00
2017-12-19T15:02:50.390Z,1.90
2017-12-19T15:05:17.815Z,1.90
2017-12-19T15:07:45.236Z,1.90
2017-12-19T15:10:12.656Z,1.80
2017-12-19T15:12:40.845Z,1.80
2017-12-19T15:15:08.264Z,1.80
2017-12-19T15:17:36.468Z,1.90
2017-12-19T15:20:03.912Z,1.90
2017-12-19T15:22:31.325Z,1.90
2017-12-19T15:24:58.750Z,1.80
2017-12-19T15:27:26.176Z,1.80
2017-12-19T15:29:54.363Z,1.80
2017-12-19T15:32:21.801Z,1.80
2017-12-19T15:34:49.284Z,1.80
2017-12-19T15:37:16.716Z,1.80
2017-12-19T15:39:44.136Z,1.80
2017-12-19T15:42:11.568Z,1.80
2017-12-19T15:44:38.994Z,1.80
2017-12-19T15:47:07.187Z,1.70
2017-12-19T15:49:34.622Z,1.70
2017-12-19T15:52:02.036Z,1.70
2017-12-19T15:54:30.240Z,1.70
2017-12-19T15:56:57.664Z,1.70
2017-12-19T15:59:25.113Z,1.70
2017-12-19T16:01:52.520Z,1.70
2017-12-19T16:04:20.703Z,1.70
2017-12-19T16:06:48.167Z,1.70
2017-12-19T16:09:15.591Z,1.70
2017-12-19T16:11:43.010Z,1.70
2017-12-19T16:14:10.432Z,1.80
2017-12-19T16:16:38.613Z,1.70
2017-12-19T16:19:06.044Z,1.70
2017-12-19T16:21:34.260Z,1.70
2017-12-19T16:24:01.688Z,1.70
2017-12-19T16:26:29.111Z,1.70
2017-12-19T16:28:56.541Z,1.70
2017-12-19T16:31:23.964Z,1.80
2017-12-19T16:33:52.155Z,1.70
2017-12-19T16:36:19.578Z,1.70
2017-12-19T16:38:47.001Z,1.70
2017-12-19T16:41:15.183Z,1.70
2017-12-19T16:43:42.611Z,1.70
2017-12-19T16:46:10.796Z,1.70
2017-12-19T16:48:38.226Z,1.70
2017-12-19T16:51:05.647Z,1.70
2017-12-19T16:53:33.828Z,1.80
2017-12-19T16:56:01.258Z,1.80
2017-12-19T16:58:29.461Z,1.80
2017-12-19T17:00:56.880Z,1.70
2017-12-19T17:03:24.310Z,1.80
2017-12-19T17:05:51.740Z,1.80
2017-12-19T17:08:19.161Z,1.90
2017-12-19T17:10:47.350Z,1.90
2017-12-19T17:13:14.792Z,1.90
2017-12-19T17:15:42.217Z,1.90
2017-12-19T17:18:10.417Z,1.90
2017-12-19T17:20:37.838Z,1.90
2017-12-19T17:23:05.251Z,1.90
2017-12-19T17:25:33.446Z,1.90
2017-12-19T17:28:00.872Z,1.90
2017-12-19T17:30:28.339Z,2.00
2017-12-19T17:32:55.799Z,2.00
2017-12-19T17:35:23.927Z,2.10
2017-12-19T17:37:51.344Z,2.10
2017-12-19T17:40:19.590Z,2.10
2017-12-19T17:42:47.004Z,2.10
2017-12-19T17:45:14.425Z,2.00
2017-12-19T17:47:41.890Z,2.00
2017-12-19T17:50:09.346Z,2.00
2017-12-19T17:52:36.769Z,2.00
2017-12-19T17:55:04.197Z,2.00
2017-12-19T17:57:31.628Z,1.90
2017-12-19T17:59:59.114Z,2.00
2017-12-19T18:02:26.519Z,2.00
2017-12-19T18:04:53.947Z,2.00
2017-12-19T18:07:21.426Z,2.00
2017-12-19T18:09:48.832Z,2.00
2017-12-19T18:12:16.305Z,2.00
2017-12-19T18:14:43.732Z,1.90
2017-12-19T18:17:11.156Z,1.90
2017-12-19T18:19:38.615Z,1.90
2017-12-19T18:22:06.040Z,1.90
2017-12-19T18:24:33.505Z,1.90
2017-12-19T18:27:00.982Z,1.90
2017-12-19T18:29:28.389Z,1.90
2017-12-19T18:31:55.833Z,1.90
2017-12-19T18:34:23.248Z,1.70
2017-12-19T18:36:50.675Z,1.80
2017-12-19T18:39:18.112Z,1.80
2017-12-19T18:41:45.564Z,1.70
2017-12-19T18:44:13.047Z,1.70
2017-12-19T18:46:40.537Z,1.70
2017-12-19T18:49:08.705Z,1.60
2017-12-19T18:51:36.142Z,1.60
2017-12-19T18:54:03.559Z,1.60
2017-12-19T18:56:31.743Z,1.70
2017-12-19T18:58:59.183Z,1.60
2017-12-19T19:01:26.662Z,1.60
2017-12-19T19:03:54.852Z,1.60
2017-12-19T19:06:23.765Z,1.70
2017-12-19T19:08:51.238Z,1.60
2017-12-19T19:11:18.651Z,1.60
2017-12-19T19:13:46.096Z,1.70
2017-12-19T19:16:13.554Z,1.60
2017-12-19T19:18:41.019Z,1.60
2017-12-19T19:21:08.490Z,1.60
2017-12-19T19:23:35.938Z,1.70
2017-12-19T19:26:04.111Z,1.70
2017-12-19T19:28:31.589Z,1.70
2017-12-19T19:30:59.000Z,1.80
2017-12-19T19:33:26.476Z,1.70
2017-12-19T19:35:53.934Z,1.70
2017-12-19T19:38:21.395Z,1.80
2017-12-19T19:40:48.880Z,1.80
2017-12-19T19:43:16.311Z,1.70
2017-12-19T19:45:43.783Z,1.70
2017-12-19T19:48:11.247Z,1.80
2017-12-19T19:50:38.708Z,1.80
2017-12-19T19:53:06.162Z,1.80
2017-12-19T19:55:34.395Z,1.80
2017-12-19T19:58:01.963Z,1.80
2017-12-19T20:00:30.190Z,1.60
2017-12-19T20:02:57.643Z,1.60
2017-12-19T20:05:25.864Z,1.70
2017-12-19T20:07:53.324Z,1.70
2017-12-19T20:10:20.740Z,1.70
2017-12-19T20:12:48.223Z,1.60
2017-12-19T20:15:15.699Z,1.60
2017-12-19T20:17:43.879Z,1.60
2017-12-19T20:20:11.348Z,1.60
2017-12-19T20:22:38.806Z,1.60
2017-12-19T20:25:06.337Z,1.60
2017-12-19T20:27:33.795Z,1.60
2017-12-19T20:30:01.267Z,1.50
2017-12-19T20:32:29.531Z,1.60
2017-12-19T20:34:57.751Z,1.50
2017-12-19T20:37:25.207Z,1.50
2017-12-19T20:39:52.674Z,1.50
2017-12-19T20:42:20.907Z,1.60
2017-12-19T20:44:48.374Z,1.50
2017-12-19T20:47:16.595Z,1.60
2017-12-19T20:49:44.073Z,1.60
2017-12-19T20:52:12.315Z,1.60
2017-12-19T20:54:39.875Z,1.60
2017-12-19T20:57:09.035Z,1.60
2017-12-19T20:59:36.448Z,1.60
2017-12-19T21:02:03.947Z,1.60
2017-12-19T21:04:32.179Z,1.60
2017-12-19T21:07:01.157Z,1.60
2017-12-19T21:09:28.623Z,1.60
2017-12-19T21:11:56.844Z,1.60
2017-12-19T21:14:24.319Z,1.50
2017-12-19T21:16:51.758Z,1.60
2017-12-19T21:19:19.223Z,1.60
2017-12-19T21:21:47.442Z,1.60
2017-12-19T21:24:14.884Z,1.60
2017-12-19T21:26:42.345Z,1.50
2017-12-19T21:29:10.528Z,1.60
2017-12-19T21:31:38.011Z,1.60
2017-12-19T21:34:05.479Z,1.70
2017-12-19T21:36:32.940Z,1.60
2017-12-19T21:39:01.164Z,1.60
2017-12-19T21:41:28.623Z,1.60
2017-12-19T21:43:56.084Z,1.60
2017-12-19T21:46:24.303Z,1.60
2017-12-19T21:48:51.779Z,1.60
2017-12-19T21:51:20.017Z,1.60
2017-12-19T21:53:47.422Z,1.60
2017-12-19T21:56:14.887Z,1.60
2017-12-19T21:58:42.355Z,1.60
2017-12-19T22:01:09.814Z,1.70
2017-12-19T22:03:38.044Z,1.70
2017-12-19T22:06:05.474Z,1.70
2017-12-19T22:08:32.948Z,1.70
2017-12-19T22:11:00.418Z,1.70
2017-12-19T22:13:27.844Z,1.80
2017-12-19T22:15:56.083Z,1.80
2017-12-19T22:18:23.492Z,1.80
2017-12-19T22:20:50.978Z,1.90
2017-12-19T22:23:18.422Z,2.00
2017-12-19T22:25:46.651Z,2.00
2017-12-19T22:28:14.111Z,2.00
2017-12-19T22:30:41.579Z,2.00
2017-12-19T22:33:09.811Z,1.90
2017-12-19T22:35:38.007Z,1.90
2017-12-19T22:38:05.475Z,1.90
2017-12-19T22:40:32.952Z,1.90
2017-12-19T22:43:00.408Z,1.90
2017-12-19T22:45:27.864Z,1.90
2017-12-19T22:47:56.095Z,1.90
2017-12-19T22:50:23.551Z,1.80
2017-12-19T22:52:51.727Z,1.90
2017-12-19T22:55:19.204Z,1.90
2017-12-19T22:57:46.608Z,1.90
2017-12-19T23:00:14.099Z,2.00
2017-12-19T23:02:41.556Z,2.00
2017-12-19T23:05:09.019Z,2.00
2017-12-19T23:07:37.247Z,2.00
2017-12-19T23:10:04.706Z,2.00
2017-12-19T23:12:32.215Z,2.00
2017-12-19T23:14:59.667Z,2.00
2017-12-19T23:17:27.151Z,2.00
2017-12-19T23:19:55.395Z,1.90
2017-12-19T23:22:22.825Z,1.90
2017-12-19T23:24:50.295Z,1.90
2017-12-19T23:27:18.488Z,1.90
2017-12-19T23:29:46.227Z,1.90
2017-12-19T23:32:14.451Z,1.80
2017-12-19T23:34:41.864Z,1.80
2017-12-19T23:37:09.358Z,1.80
2017-12-19T23:39:37.508Z,1.80
2017-12-19T23:42:05.708Z,1.90
2017-12-19T23:44:33.203Z,1.90
2017-12-19T23:47:01.387Z,1.80
2017-12-19T23:49:28.816Z,1.70
2017-12-19T23:51:57.063Z,1.90
2017-12-19T23:54:24.478Z,1.90
2017-12-19T23:56:51.916Z,1.90
2017-12-19T23:59:19.340Z,2.00
